createdAt,value
2017-11-20T00:09:08.000Z,1011.686
2017-11-20T00:19:08.000Z,1011.661
2017-11-20T00:29:08.000Z,1011.663
2017-11-20T00:39:08.000Z,1011.663
2017-11-20T00:49:08.000Z,1011.524
2017-11-20T00:59:08.000Z,1011.53
2017-11-20T01:09:08.000Z,1011.643
2017-11-20T01:19:08.000Z,1011.67
2017-11-20T01:29:08.000Z,1011.543
2017-11-20T01:39:09.000Z,1011.546
2017-11-20T01:49:08.000Z,1011.485
2017-11-20T01:59:08.000Z,1011.524
2017-11-20T02:09:08.000Z,1011.436
2017-11-20T02:19:08.000Z,1011.328
2017-11-20T02:29:08.000Z,1011.318
2017-11-20T02:39:08.000Z,1011.269
2017-11-20T02:49:08.000Z,1011.249
2017-11-20T02:59:08.000Z,1011.174
2017-11-20T03:09:09.000Z,1011.051
2017-11-20T03:19:09.000Z,1011.079
2017-11-20T03:29:09.000Z,1011.092
2017-11-20T03:39:09.000Z,1011.058
2017-11-20T03:49:09.000Z,1011.074
2017-11-20T03:59:09.000Z,1011.062
2017-11-20T04:09:09.000Z,1011.077
2017-11-20T04:19:09.000Z,1010.955
2017-11-20T04:29:09.000Z,1010.982
2017-11-20T04:39:09.000Z,1010.976
2017-11-20T04:49:09.000Z,1010.897
2017-11-20T04:59:09.000Z,1010.905
2017-11-20T05:09:09.000Z,1010.85
2017-11-20T05:19:09.000Z,1010.906
2017-11-20T05:29:09.000Z,1010.938
2017-11-20T05:39:09.000Z,1010.999
2017-11-20T05:49:09.000Z,1010.917
2017-11-20T05:59:09.000Z,1010.893
2017-11-20T06:09:09.000Z,1010.874
2017-11-20T06:19:09.000Z,1010.914
2017-11-20T06:29:09.000Z,1010.884
2017-11-20T06:39:09.000Z,1010.993
2017-11-20T06:49:09.000Z,1011.011
2017-11-20T06:59:09.000Z,1011.004
2017-11-20T07:09:09.000Z,1011.085
2017-11-20T07:19:09.000Z,1011.159
2017-11-20T07:29:09.000Z,1011.154
2017-11-20T07:39:09.000Z,1011.151
2017-11-20T07:49:09.000Z,1011.167
2017-11-20T07:59:09.000Z,1011.168
2017-11-20T08:09:09.000Z,1011.146
2017-11-20T08:19:09.000Z,1011.113
2017-11-20T08:29:09.000Z,1011.036
2017-11-20T08:39:09.000Z,1010.931
2017-11-20T08:49:09.000Z,1010.852
2017-11-20T08:59:09.000Z,1010.837
2017-11-20T09:09:09.000Z,1010.779
2017-11-20T09:19:09.000Z,1010.775
2017-11-20T09:29:09.000Z,1010.646
2017-11-20T09:39:09.000Z,1010.581
2017-11-20T09:49:09.000Z,1010.556
2017-11-20T09:59:09.000Z,1010.459
2017-11-20T10:09:09.000Z,1010.355
2017-11-20T10:19:09.000Z,1010.229
2017-11-20T10:29:09.000Z,1010.072
2017-11-20T10:39:09.000Z,1010.021
2017-11-20T10:59:09.000Z,1009.831
2017-11-20T11:09:09.000Z,1009.744
2017-11-20T11:19:10.000Z,1009.565
2017-11-20T11:29:10.000Z,1009.325
2017-11-20T11:39:11.000Z,1009.147
2017-11-20T11:49:10.000Z,1009.036
2017-11-20T11:59:10.000Z,1008.815
2017-11-20T12:09:10.000Z,1008.73
2017-11-20T12:19:10.000Z,1008.524
2017-11-20T12:29:10.000Z,1008.244
2017-11-20T12:39:10.000Z,1008.096
2017-11-20T12:49:10.000Z,1007.803
2017-11-20T12:59:10.000Z,1007.623
2017-11-20T13:09:11.000Z,1007.367
2017-11-20T13:19:10.000Z,1007.025
2017-11-20T13:29:10.000Z,1006.747
2017-11-20T13:39:10.000Z,1006.535
2017-11-20T13:49:10.000Z,1006.199
2017-11-20T13:59:10.000Z,1005.988
2017-11-20T14:09:11.000Z,1005.814
2017-11-20T14:19:10.000Z,1005.594
2017-11-20T14:29:10.000Z,1005.505
2017-11-20T14:39:10.000Z,1005.311
2017-11-20T14:49:10.000Z,1005.129
2017-11-20T14:59:10.000Z,1004.908
2017-11-20T15:09:10.000Z,1004.733
2017-11-20T15:19:10.000Z,1004.639
2017-11-20T15:29:10.000Z,1004.509
2017-11-20T15:39:10.000Z,1004.352
2017-11-20T15:49:10.000Z,1004.184
2017-11-20T15:59:10.000Z,1003.994
2017-11-20T16:09:10.000Z,1003.887
2017-11-20T16:19:10.000Z,1003.807
2017-11-20T16:29:10.000Z,1003.655
2017-11-20T16:39:10.000Z,1003.377
2017-11-20T16:49:10.000Z,1003.199
2017-11-20T16:59:10.000Z,1003.08
2017-11-20T17:09:10.000Z,1003.08
2017-11-20T17:19:10.000Z,1002.972
2017-11-20T17:29:10.000Z,1002.886
2017-11-20T17:39:10.000Z,1002.706
2017-11-20T17:49:10.000Z,1002.511
2017-11-20T17:59:10.000Z,1002.531
2017-11-20T18:09:10.000Z,1002.503
2017-11-20T18:19:10.000Z,1002.403
2017-11-20T18:29:10.000Z,1002.34
2017-11-20T18:39:10.000Z,1002.252
2017-11-20T18:49:10.000Z,1002.212
2017-11-20T18:59:10.000Z,1002.256
2017-11-20T19:09:10.000Z,1002.15
2017-11-20T19:19:11.000Z,1002.064
2017-11-20T19:29:10.000Z,1002.008
2017-11-20T19:39:10.000Z,1002.04
2017-11-20T19:49:11.000Z,1002.001
2017-11-20T19:59:11.000Z,1001.76
2017-11-20T20:09:11.000Z,1001.726
2017-11-20T20:19:11.000Z,1001.79
2017-11-20T20:29:11.000Z,1001.74
2017-11-20T20:39:11.000Z,1001.726
2017-11-20T20:49:11.000Z,1001.684
2017-11-20T20:59:11.000Z,1001.593
2017-11-20T21:09:11.000Z,1001.641
2017-11-20T21:19:11.000Z,1001.56
2017-11-20T21:29:11.000Z,1001.539
2017-11-20T21:39:11.000Z,1001.502
2017-11-20T21:49:11.000Z,1001.484
2017-11-20T21:59:11.000Z,1001.659
2017-11-20T22:09:11.000Z,1001.721
2017-11-20T22:19:11.000Z,1001.618
2017-11-20T22:29:11.000Z,1001.578
2017-11-20T22:39:11.000Z,1001.685
2017-11-20T22:49:11.000Z,1001.725
2017-11-20T22:59:11.000Z,1001.711
2017-11-20T23:09:11.000Z,1001.741
2017-11-20T23:19:11.000Z,1001.621
2017-11-20T23:29:11.000Z,1001.595
2017-11-20T23:39:11.000Z,1001.66
2017-11-20T23:49:11.000Z,1001.631
2017-11-20T23:59:11.000Z,1001.602
